< Typhoon 199008 1990 Season Typhoon 199010 >
Typhoon 199009 (TASHA)
General InformationTrack Information on Google MapsDetailed Wind InformationList of All Images || Disaster Info.ResourceGoogle EarthGE AnimationAtom FeedGeoJSON
Detalied Best Track (Time Zone = UTC)
Year Month Day Hour Lat. Long. Pressure (hPa) Wind (kt) Class Image Chart
1990 7 26 12 20.0 119.6 1002 0 2 Image Chart
1990 7 26 18 19.6 120.0 1000 0 2 Image Chart
1990 7 27 00 19.2 120.2 1000 0 2 Image Chart
1990 7 27 06 18.8 120.2 1000 0 2 Image Chart
1990 7 27 12 18.6 119.8 1000 0 2 Image Chart
1990 7 27 18 18.6 119.2 1000 0 2 Image Chart
1990 7 28 00 18.6 118.3 996 35 3 Image Chart
1990 7 28 06 18.6 118.0 992 40 3 Image Chart
1990 7 28 12 18.7 117.6 990 45 3 Image Chart
1990 7 28 18 18.8 117.4 990 45 3 Image Chart
1990 7 29 00 18.9 117.2 990 45 3 Image Chart
1990 7 29 06 18.8 116.5 985 50 4 Image Chart
1990 7 29 12 18.8 116.0 985 50 4 Image Chart
1990 7 29 18 19.0 116.0 985 50 4 Image Chart
1990 7 30 00 19.4 115.5 980 55 4 Image Chart
1990 7 30 06 20.1 115.8 980 55 4 Image Chart
1990 7 30 12 21.4 115.8 980 55 4 Image Chart
1990 7 30 18 22.0 116.0 980 55 4 Image Chart
1990 7 31 00 23.6 115.1 985 50 4 Image Chart
1990 7 31 06 25.0 114.7 990 45 3 Image Chart
1990 7 31 12 25.5 114.4 996 35 3 Image Chart
1990 7 31 18 25.8 114.3 998 0 2 Image Chart
1990 8 1 00 26.2 114.6 1000 0 2 Image Chart
Japan Meteorological Agency Best Track Data | Correction Date : 1992-10-21
< Typhoon 199008 1990 Season Typhoon 199010 >

Help